Terminal Aerodrome Forecast
Issued by NWS

Home | Current Version | Previous Version | Text Only | Print | Product List | Glossary On
Versions: 1 2 3 4 5 6 7 8 9 10 11 12 13 14 15 16 17 18 19 20 21 22 23 24 25 26 27
000
FTUS43 KIND 011352 AAA
TAFLAF
TAF AMD
KLAF 011352Z 0114/0212 03004KT 2SM BR OVC004
     FM011530 04005KT P6SM OVC010
     FM011800 05008KT P6SM VCTS BKN025CB
     FM020100 33008KT P6SM SCT040
     FM020900 35007KT 5SM BR OVC007=

USA.gov is the U.S. government's official web portal to all federal, state and local government web resources and services.